Time;durP1;ratioP1;P1;durP2;ratioP2;P2;SDS_P1;SDS_P2;PMS_P1;PMS_P2;Temp;Humidity;BMP_temperature;BMP_pressure;BME280_temperature;BME280_humidity;BME280_pressure;Samples;Min_cycle;Max_cycle;Signal;HPM_P1;HPM_P2
2021/10/16 06:23:34;;;;;;;;;12.75;11.75;;;;;11.22;74.70;101977.44;5436894;22;46455;-81
2021/10/16 06:25:59;;;;;;;;;15.00;13.75;;;;;11.29;75.21;101977.31;5014674;28;46175;-81
2021/10/16 06:28:25;;;;;;;;;11.00;11.00;;;;;11.23;74.70;101971.28;5025285;28;45345;-81
2021/10/16 06:30:50;;;;;;;;;13.50;12.50;;;;;11.30;74.60;101984.31;5022672;28;45225;-81
2021/10/16 06:33:16;;;;;;;;;14.50;12.75;;;;;11.31;74.41;101984.28;5027880;28;45585;-81
2021/10/16 06:35:41;;;;;;;;;12.00;11.00;;;;;11.34;74.33;101997.41;4999715;28;46166;-83
2021/10/16 06:38:08;;;;;;;;;16.25;13.75;;;;;11.33;73.63;101995.66;5015229;28;48354;-83
2021/10/16 06:40:33;;;;;;;;;12.00;11.50;;;;;11.32;73.66;102003.59;4999577;28;45463;-83
2021/10/16 06:42:58;;;;;;;;;15.00;13.50;;;;;11.33;73.45;102013.25;5017953;28;45390;-83
2021/10/16 06:45:24;;;;;;;;;11.50;11.00;;;;;11.33;73.56;102005.34;5018282;28;45509;-83
2021/10/16 06:47:49;;;;;;;;;14.50;13.00;;;;;11.34;74.39;101997.41;5016969;28;46297;-83
2021/10/16 06:50:15;;;;;;;;;14.50;13.25;;;;;11.38;74.50;101995.63;5016886;28;45364;-83
2021/10/16 06:52:40;;;;;;;;;19.75;12.00;;;;;11.40;74.15;101992.94;5017723;28;46347;-83
2021/10/16 06:55:06;;;;;;;;;13.50;12.25;;;;;11.47;74.05;101995.47;5017828;28;46231;-83
2021/10/16 06:57:32;;;;;;;;;12.50;11.00;;;;;11.52;74.28;102003.28;5016991;28;45380;-84
2021/10/16 06:59:57;;;;;;;;;16.75;15.25;;;;;11.48;74.30;101997.19;5000407;28;45190;-83
2021/10/16 07:02:23;;;;;;;;;13.25;12.00;;;;;11.55;74.44;102007.63;5027295;28;45285;-83
2021/10/16 07:04:48;;;;;;;;;13.00;13.00;;;;;11.55;74.64;101997.09;5015646;28;45582;-83
2021/10/16 07:07:13;;;;;;;;;12.75;12.75;;;;;11.56;74.13;102004.06;5017889;28;46211;-83
2021/10/16 07:09:39;;;;;;;;;13.25;13.25;;;;;11.61;74.52;102009.25;5001267;28;45429;-83
2021/10/16 07:12:07;;;;;;;;;12.50;11.25;;;;;11.62;74.56;102009.25;5018693;28;45428;-82
2021/10/16 07:14:33;;;;;;;;;13.00;11.75;;;;;11.64;74.76;102001.31;5018732;28;45471;-82
2021/10/16 07:16:58;;;;;;;;;15.50;13.25;;;;;11.67;74.81;102006.53;5018263;28;46255;-82
2021/10/16 07:19:23;;;;;;;;;12.25;12.00;;;;;11.68;74.16;102011.78;5019025;28;45287;-82
2021/10/16 07:21:49;;;;;;;;;12.00;11.50;;;;;11.74;74.43;102012.56;5018813;28;45327;-85
2021/10/16 07:24:14;;;;;;;;;14.00;12.00;;;;;11.70;73.91;102017.03;4998888;28;46107;-83
2021/10/16 07:26:40;;;;;;;;;12.25;11.50;;;;;11.74;73.80;102015.19;5017926;28;45418;-83
2021/10/16 07:29:06;;;;;;;;;18.00;15.00;;;;;11.76;73.95;102008.13;5019028;28;45446;-83
2021/10/16 07:31:32;;;;;;;;;14.25;12.75;;;;;11.81;74.06;102011.56;5017526;28;45387;-84
2021/10/16 07:34:00;;;;;;;;;15.00;12.00;;;;;11.85;74.37;102026.44;5018506;28;45261;-84
2021/10/16 07:36:28;;;;;;;;;14.50;11.50;;;;;11.92;74.21;102035.97;5018808;28;45417;-84
2021/10/16 07:38:53;;;;;;;;;14.00;12.50;;;;;11.92;73.92;102032.47;5019137;28;45395;-84
2021/10/16 07:41:19;;;;;;;;;14.25;12.00;;;;;11.93;73.87;102027.16;5019916;28;45782;-83
2021/10/16 07:43:44;;;;;;;;;15.75;12.75;;;;;11.97;72.79;102037.66;5002662;28;46446;-83
2021/10/16 07:46:10;;;;;;;;;14.00;13.50;;;;;11.98;72.76;102034.09;5020724;28;45853;-81
2021/10/16 07:48:35;;;;;;;;;15.50;12.50;;;;;12.00;72.74;102024.41;5022093;28;45323;-81
2021/10/16 07:51:00;;;;;;;;;18.25;16.00;;;;;12.05;72.47;102038.34;5020910;28;45322;-81
2021/10/16 07:53:26;;;;;;;;;15.25;13.75;;;;;12.07;72.16;102044.50;5021399;28;45391;-81
2021/10/16 07:55:51;;;;;;;;;17.25;14.00;;;;;12.06;72.34;102039.22;5021417;28;45357;-81
2021/10/16 07:58:16;;;;;;;;;18.50;14.25;;;;;12.04;71.76;102031.38;5021941;28;45217;-81
2021/10/16 08:00:42;;;;;;;;;20.50;14.75;;;;;12.06;72.21;102042.75;5021767;28;45310;-81
2021/10/16 08:03:07;;;;;;;;;17.50;14.00;;;;;12.13;71.97;102041.75;5022090;28;45185;-81
2021/10/16 08:05:32;;;;;;;;;21.25;15.50;;;;;12.09;72.10;102034.78;5020902;28;45307;-81
2021/10/16 08:07:58;;;;;;;;;15.50;14.00;;;;;12.10;71.62;102036.50;5019567;28;46045;-81
2021/10/16 08:10:24;;;;;;;;;15.00;14.75;;;;;12.13;72.25;102032.97;5020057;28;45499;-81
2021/10/16 08:12:49;;;;;;;;;17.00;16.00;;;;;12.12;71.74;102039.97;5020337;28;45404;-81
2021/10/16 08:15:15;;;;;;;;;21.00;17.75;;;;;12.13;71.51;102041.75;5021309;28;45611;-81
2021/10/16 08:17:41;;;;;;;;;16.75;16.50;;;;;12.11;71.99;102043.53;5021035;28;45218;-81
2021/10/16 08:20:07;;;;;;;;;17.50;17.00;;;;;12.14;71.61;102032.09;5019915;28;45467;-81
2021/10/16 08:22:32;;;;;;;;;20.50;16.50;;;;;12.14;71.89;102032.97;5021010;28;45648;-81
2021/10/16 08:24:58;;;;;;;;;19.25;17.75;;;;;12.14;71.97;102027.69;5019790;28;45580;-81
2021/10/16 08:27:23;;;;;;;;;20.00;19.00;;;;;12.19;71.81;102040.78;5021871;28;45442;-81
2021/10/16 08:29:48;;;;;;;;;17.25;15.50;;;;;12.13;72.06;102033.84;5020788;28;45386;-81
2021/10/16 08:32:15;;;;;;;;;15.25;13.75;;;;;12.13;72.33;102033.84;5020277;28;45392;-81
2021/10/16 08:34:40;;;;;;;;;17.00;14.00;;;;;12.14;72.14;102042.63;5020693;28;46106;-82
2021/10/16 08:37:06;;;;;;;;;15.25;12.75;;;;;12.14;71.82;102037.38;5003369;28;46121;-82
2021/10/16 08:39:31;;;;;;;;;14.00;13.50;;;;;12.14;71.92;102035.59;5021480;28;45524;-81
2021/10/16 08:41:57;;;;;;;;;21.25;15.00;;;;;12.14;71.77;102034.72;5019596;28;45312;-81
2021/10/16 08:44:24;;;;;;;;;17.75;15.00;;;;;12.16;71.74;102032.94;5019770;28;45449;-81
2021/10/16 08:46:51;;;;;;;;;16.50;15.75;;;;;12.20;71.67;102039.03;5020309;28;45205;-81
2021/10/16 08:49:18;;;;;;;;;16.25;12.25;;;;;12.20;71.36;102041.66;5021353;28;45475;-81
2021/10/16 08:51:43;;;;;;;;;17.75;15.25;;;;;12.25;71.74;102042.41;5020350;28;45606;-81
2021/10/16 08:54:09;;;;;;;;;15.25;13.50;;;;;12.24;71.58;102038.06;5019937;28;46494;-81
2021/10/16 08:56:34;;;;;;;;;18.00;15.25;;;;;12.30;71.60;102052.91;5019675;28;45558;-81
2021/10/16 08:59:00;;;;;;;;;18.50;16.75;;;;;12.29;71.26;102041.47;5020467;28;45536;-81
2021/10/16 09:01:25;;;;;;;;;15.75;15.00;;;;;12.28;70.82;102039.72;5020724;28;45324;-81
2021/10/16 09:03:51;;;;;;;;;17.50;15.25;;;;;12.32;71.04;102040.56;5020891;28;46236;-81
2021/10/16 09:06:24;;;;;;;;;22.00;16.25;;;;;12.37;70.93;102044.81;5019895;28;45240;-81
2021/10/16 09:08:55;;;;;;;;;14.25;13.00;;;;;12.41;70.86;102055.31;5020516;28;45487;-81
2021/10/16 09:11:38;;;;;;;;;12.50;12.50;;;;;12.43;70.86;102064.06;5002982;28;46457;-81
2021/10/16 09:14:08;;;;;;;;;20.25;14.00;;;;;12.44;70.71;102050.00;5020534;28;45261;-82
2021/10/16 09:16:34;;;;;;;;;15.50;14.25;;;;;12.50;70.83;102060.41;5020525;28;45988;-81
2021/10/16 09:19:10;;;;;;;;;15.50;14.00;;;;;12.54;70.62;102062.09;5021025;28;45305;-81
2021/10/16 09:21:40;;;;;;;;;15.00;14.00;;;;;12.54;70.43;102048.91;5020561;28;45422;-82
2021/10/16 09:24:10;;;;;;;;;13.50;13.50;;;;;12.57;69.80;102048.81;5020303;28;45759;-82
2021/10/16 09:26:38;;;;;;;;;16.00;12.25;;;;;12.64;70.11;102054.00;5020256;28;45659;-82
2021/10/16 09:29:05;;;;;;;;;15.00;13.50;;;;;12.63;69.76;102050.47;5020555;28;45529;-82
2021/10/16 09:31:36;;;;;;;;;14.25;13.25;;;;;12.68;69.03;102051.25;5020492;28;45204;-82
2021/10/16 09:34:02;;;;;;;;;14.50;12.75;;;;;12.74;69.27;102047.59;5020968;28;45513;-82
2021/10/16 09:36:30;;;;;;;;;16.00;13.75;;;;;12.76;69.06;102051.09;5020007;28;45637;-82
2021/10/16 09:38:57;;;;;;;;;20.00;16.50;;;;;12.76;68.60;102043.19;5020364;28;45272;-82
2021/10/16 09:41:35;;;;;;;;;17.75;15.00;;;;;12.86;68.81;102056.19;5002251;28;45486;-82
2021/10/16 09:44:02;;;;;;;;;15.25;14.50;;;;;12.92;68.15;102056.91;5020701;28;46291;-82
2021/10/16 09:46:28;;;;;;;;;17.75;16.50;;;;;12.97;68.08;102058.56;5023607;28;45174;-82
2021/10/16 09:48:53;;;;;;;;;15.50;15.50;;;;;12.99;68.12;102047.06;5029309;28;45256;-82
2021/10/16 09:51:20;;;;;;;;;16.75;14.50;;;;;13.04;68.08;102047.84;5002557;28;45286;-82
2021/10/16 09:54:04;;;;;;;;;11.75;11.00;;;;;13.08;68.32;102050.41;5020138;28;45411;-82
2021/10/16 09:56:31;;;;;;;;;13.75;11.75;;;;;13.13;67.27;102043.28;5019782;28;45226;-82
2021/10/16 09:58:57;;;;;;;;;13.25;11.25;;;;;13.18;67.53;102051.97;5020522;28;45328;-83
2021/10/16 10:01:24;;;;;;;;;11.50;7.75;;;;;13.19;67.62;102051.03;5019404;28;45407;-83
2021/10/16 10:03:50;;;;;;;;;10.50;10.50;;;;;13.23;67.79;102047.44;5020326;28;45455;-83
2021/10/16 10:06:16;;;;;;;;;14.25;12.00;;;;;13.26;67.87;102044.72;5034698;28;45776;-83
2021/10/16 10:08:43;;;;;;;;;12.75;10.25;;;;;13.30;67.71;102042.00;5019707;28;45185;-83
2021/10/16 10:11:10;;;;;;;;;10.00;10.00;;;;;13.32;67.73;102037.56;5020083;28;45498;-83
2021/10/16 10:13:35;;;;;;;;;7.50;7.50;;;;;13.33;67.03;102034.03;4998932;28;47238;-83
2021/10/16 10:16:01;;;;;;;;;11.50;9.00;;;;;13.36;66.94;102040.06;5013762;28;45277;-83
2021/10/16 10:21:13;;;;;;;;;10.00;8.00;;;;;13.44;66.22;102042.53;5018932;28;45245;-83
2021/10/16 10:23:52;;;;;;;;;11.00;11.00;;;;;13.49;65.76;102045.06;5028169;28;46406;-83
2021/10/16 10:26:25;;;;;;;;;10.50;9.25;;;;;13.50;66.43;102030.97;5039756;28;45166;-82
2021/10/16 10:28:56;;;;;;;;;6.75;6.75;;;;;13.55;66.56;102029.09;5039633;28;45450;-83
2021/10/16 10:31:43;;;;;;;;;8.25;7.50;;;;;13.64;66.36;102042.97;5027057;28;46839;-83
2021/10/16 10:34:22;;;;;;;;;10.00;8.50;;;;;13.63;65.88;102035.97;5034555;28;45562;-84
2021/10/16 10:36:53;;;;;;;;;10.25;8.00;;;;;13.65;65.82;102035.03;5039687;28;45292;-84
2021/10/16 10:39:32;;;;;;;;;8.50;8.00;;;;;13.72;65.68;102036.63;5039285;28;45433;-84
2021/10/16 10:41:58;;;;;;;;;10.50;8.75;;;;;13.74;65.64;102041.84;5025373;28;45264;-84
2021/10/16 10:44:41;;;;;;;;;8.50;8.00;;;;;13.75;64.88;102038.31;5039436;28;45299;-84
2021/10/16 10:47:28;;;;;;;;;9.75;8.75;;;;;13.81;64.99;102027.56;5039236;28;45387;-84
2021/10/16 10:49:56;;;;;;;;;7.00;5.75;;;;;13.89;64.82;102034.44;5009338;28;45652;-84
2021/10/16 10:52:23;;;;;;;;;7.50;6.00;;;;;13.88;64.89;102030.91;5007541;28;45433;-84
2021/10/16 10:55:10;;;;;;;;;6.50;6.50;;;;;13.94;64.84;102021.97;5039316;28;45495;-84
2021/10/16 10:57:45;;;;;;;;;7.75;7.25;;;;;14.01;64.83;102031.47;5022627;28;45405;-84
2021/10/16 11:00:15;;;;;;;;;7.25;6.25;;;;;13.99;64.40;102017.44;5026213;28;45300;-85
2021/10/16 11:02:41;;;;;;;;;7.00;5.50;;;;;14.03;63.83;102019.06;5017216;28;45593;-85
2021/10/16 11:05:34;;;;;;;;;10.00;6.25;;;;;14.10;63.63;102019.75;5018487;28;45391;-84
2021/10/16 11:08:11;;;;;;;;;6.00;5.25;;;;;14.16;64.61;102024.91;5018343;28;45177;-84
2021/10/16 11:10:37;;;;;;;;;7.75;6.75;;;;;14.15;63.72;102020.50;5031119;28;45183;-84
2021/10/16 11:13:12;;;;;;;;;5.75;4.25;;;;;14.26;62.95;102025.50;5030260;28;45467;-85
2021/10/16 11:15:39;;;;;;;;;5.50;5.50;;;;;14.28;62.52;102023.69;5023300;28;45647;-88
2021/10/16 11:18:12;;;;;;;;;8.75;5.50;;;;;14.32;62.51;102023.59;5003952;28;45408;-84
2021/10/16 11:20:39;;;;;;;;;5.00;4.00;;;;;14.34;62.54;102022.66;5022693;28;45311;-85
2021/10/16 11:23:06;;;;;;;;;6.25;4.75;;;;;14.42;62.01;102026.84;5027657;28;45528;-84
2021/10/16 11:25:34;;;;;;;;;7.75;6.25;;;;;14.40;61.20;102013.66;5030511;28;46200;-84
2021/10/16 11:28:00;;;;;;;;;12.00;7.00;;;;;14.50;61.72;102017.78;5022554;28;45995;-85
2021/10/16 11:30:25;;;;;;;;;8.75;7.00;;;;;14.48;60.97;102016.97;5012344;28;45311;-85
2021/10/16 11:32:50;;;;;;;;;7.75;7.75;;;;;14.54;60.56;102018.56;5029375;28;45375;-85
2021/10/16 11:35:16;;;;;;;;;7.75;7.25;;;;;14.59;60.83;102013.13;5026137;28;45572;-85
2021/10/16 11:37:49;;;;;;;;;7.50;6.00;;;;;14.69;60.40;102019.03;5030808;28;45249;-85
2021/10/16 11:40:20;;;;;;;;;8.00;5.00;;;;;14.72;60.85;102010.97;5004383;28;45183;-85
2021/10/16 11:42:57;;;;;;;;;8.00;7.75;;;;;14.73;61.41;102005.66;5026669;28;45320;-85
2021/10/16 11:45:25;;;;;;;;;9.50;7.00;;;;;14.76;61.59;102001.16;5028201;28;45403;-85
2021/10/16 11:47:53;;;;;;;;;11.50;6.50;;;;;14.80;61.56;102006.31;5018807;28;45253;-85
2021/10/16 11:50:28;;;;;;;;;6.50;6.25;;;;;14.82;61.55;102003.63;5006420;28;45450;-85
2021/10/16 11:53:22;;;;;;;;;4.25;3.25;;;;;14.84;60.37;101994.72;5024076;28;46480;-85
2021/10/16 11:55:52;;;;;;;;;5.00;5.00;;;;;14.90;59.82;101992.81;5023835;28;46769;-84
2021/10/16 11:58:20;;;;;;;;;6.25;4.00;;;;;14.85;60.40;101970.03;5019391;28;45436;-85
2021/10/16 12:00:50;;;;;;;;;5.00;5.00;;;;;14.91;60.70;101981.34;5020935;28;45612;-85
2021/10/16 12:03:22;;;;;;;;;6.00;6.00;;;;;14.94;60.15;101983.88;5021089;28;45462;-84
2021/10/16 12:05:55;;;;;;;;;4.00;4.00;;;;;14.94;59.95;101973.28;5024835;28;45551;-85
2021/10/16 12:08:29;;;;;;;;;4.75;4.25;;;;;14.96;59.78;101976.75;5041713;28;45241;-85
2021/10/16 12:11:03;;;;;;;;;8.25;5.00;;;;;15.02;59.18;101979.19;5024038;28;45231;-85
2021/10/16 12:13:37;;;;;;;;;3.00;3.00;;;;;14.99;58.64;101965.22;5029093;28;46149;-85
2021/10/16 12:16:16;;;;;;;;;4.00;4.00;;;;;15.06;58.95;101966.75;5041655;28;46392;-85
2021/10/16 12:18:49;;;;;;;;;4.00;4.00;;;;;15.05;58.47;101963.22;5041593;28;45525;-85
2021/10/16 12:21:28;;;;;;;;;5.75;4.00;;;;;15.10;58.79;101960.44;5027160;28;45225;-85
2021/10/16 12:23:53;;;;;;;;;4.25;4.00;;;;;15.10;59.02;101963.06;5023081;28;45371;-84
2021/10/16 12:26:23;;;;;;;;;5.00;3.50;;;;;15.16;58.42;101968.16;5040992;28;46149;-85
2021/10/16 12:28:50;;;;;;;;;4.00;4.00;;;;;15.12;57.81;101947.13;5026355;28;45224;-85
2021/10/16 12:31:16;;;;;;;;;4.75;3.25;;;;;15.18;58.14;101958.41;5015735;28;45433;-85
2021/10/16 12:34:00;;;;;;;;;4.25;4.25;;;;;15.18;57.97;101944.28;5023568;28;45451;-85
2021/10/16 12:36:29;;;;;;;;;5.00;5.00;;;;;15.22;58.34;101951.22;5021429;28;46225;-84
2021/10/16 12:38:55;;;;;;;;;2.75;2.75;;;;;15.21;57.46;101943.31;5020101;28;45584;-84
2021/10/16 12:41:45;;;;;;;;;2.25;2.00;;;;;15.26;56.85;101949.34;5002265;28;45513;-85
2021/10/16 12:44:34;;;;;;;;;2.00;2.00;;;;;15.27;56.62;101946.63;5018948;28;47339;-85
2021/10/16 12:47:10;;;;;;;;;3.00;3.00;;;;;15.29;56.58;101942.13;5003361;28;48096;-85
2021/10/16 12:49:40;;;;;;;;;2.00;1.25;;;;;15.30;56.15;101937.72;5030411;28;45629;-84
2021/10/16 12:52:26;;;;;;;;;3.75;2.00;;;;;15.36;56.27;101934.84;5032984;28;45173;-84
2021/10/16 12:54:53;;;;;;;;;2.00;2.00;;;;;15.37;56.34;101925.13;5022575;28;46038;-85
2021/10/16 12:57:19;;;;;;;;;3.50;3.00;;;;;15.35;56.44;101913.72;5040982;28;45438;-84
2021/10/16 12:59:44;;;;;;;;;2.25;2.25;;;;;15.36;56.41;101920.75;5029214;28;45415;-85
2021/10/16 13:02:09;;;;;;;;;2.00;1.75;;;;;15.37;56.68;101909.22;5020854;28;45446;-85
2021/10/16 13:04:47;;;;;;;;;4.00;2.00;;;;;15.37;57.01;101901.28;5021805;28;45578;-84
2021/10/16 13:07:13;;;;;;;;;1.00;1.00;;;;;15.37;56.50;101904.78;5020368;28;45417;-84
2021/10/16 13:09:38;;;;;;;;;3.00;2.00;;;;;15.39;56.15;101902.09;5021037;28;45300;-84
2021/10/16 13:12:04;;;;;;;;;2.00;2.00;;;;;15.37;55.63;101906.56;5036111;28;45407;-86
2021/10/16 13:14:29;;;;;;;;;2.00;2.00;;;;;15.41;55.19;101908.19;5030586;28;45420;-84
2021/10/16 13:16:58;;;;;;;;;4.50;2.00;;;;;15.41;55.03;101900.25;5039064;28;45812;-85
2021/10/16 13:19:23;;;;;;;;;2.50;2.00;;;;;15.39;54.69;101900.31;5020367;28;45364;-84
2021/10/16 13:21:48;;;;;;;;;2.00;1.50;;;;;15.44;54.80;101902.78;5033658;28;45587;-84
2021/10/16 13:24:14;;;;;;;;;2.50;2.50;;;;;15.45;54.74;101907.19;5025291;28;45383;-84
2021/10/16 13:26:39;;;;;;;;;2.00;2.00;;;;;15.45;54.16;101901.88;5002856;28;46318;-84
2021/10/16 13:29:05;;;;;;;;;3.00;1.75;;;;;15.48;54.39;101899.09;5019831;28;45500;-84
2021/10/16 13:31:32;;;;;;;;;1.75;1.75;;;;;15.49;53.88;101892.03;5019323;28;45462;-84
2021/10/16 13:33:58;;;;;;;;;1.75;1.75;;;;;15.52;53.93;101895.44;5002932;28;47060;-84
2021/10/16 13:36:23;;;;;;;;;2.00;2.00;;;;;15.53;54.78;101897.16;5019578;28;45255;-84
2021/10/16 13:38:49;;;;;;;;;1.00;1.00;;;;;15.56;54.73;101892.66;5019909;28;45330;-84
2021/10/16 13:41:14;;;;;;;;;2.00;2.00;;;;;15.53;54.35;101885.72;5008035;28;45234;-84
2021/10/16 13:43:40;;;;;;;;;3.50;2.00;;;;;15.56;53.79;101880.28;5020282;28;45302;-84
2021/10/16 13:46:05;;;;;;;;;2.75;2.00;;;;;15.55;54.14;101877.72;5020087;28;46645;-84
2021/10/16 13:48:32;;;;;;;;;2.50;2.50;;;;;15.55;53.62;101872.41;5020496;28;45150;-84
2021/10/16 13:50:57;;;;;;;;;1.75;1.75;;;;;15.56;53.61;101874.13;5020253;28;45383;-84
2021/10/16 13:53:23;;;;;;;;;3.00;1.50;;;;;15.57;53.41;101868.78;5019825;28;45519;-84
2021/10/16 13:55:48;;;;;;;;;1.75;1.75;;;;;15.57;53.46;101865.25;5020242;28;45294;-84
2021/10/16 13:58:14;;;;;;;;;2.00;2.00;;;;;15.62;53.12;101874.78;5020395;28;45403;-84
2021/10/16 14:00:39;;;;;;;;;2.00;2.00;;;;;15.61;52.81;101869.53;5019812;28;45379;-84
2021/10/16 14:03:04;;;;;;;;;3.00;2.75;;;;;15.64;52.95;101872.06;5020163;28;45639;-84
2021/10/16 14:05:30;;;;;;;;;1.75;1.75;;;;;15.68;52.46;101872.84;5001952;28;46497;-84
2021/10/16 14:07:55;;;;;;;;;2.00;2.00;;;;;15.69;52.60;101871.91;5019563;28;45516;-84
2021/10/16 14:10:20;;;;;;;;;2.00;2.00;;;;;15.73;52.38;101874.38;5020253;28;45433;-84
2021/10/16 14:12:46;;;;;;;;;2.00;2.00;;;;;15.76;52.18;101868.09;5019990;28;45418;-84
2021/10/16 14:15:11;;;;;;;;;4.00;2.00;;;;;15.77;52.15;101866.31;5019398;28;46473;-84
2021/10/16 14:17:36;;;;;;;;;3.00;2.00;;;;;15.80;53.13;101867.09;5007739;28;45396;-84
2021/10/16 14:20:03;;;;;;;;;2.00;2.00;;;;;15.82;52.43;101869.66;5019857;28;45244;-84
2021/10/16 14:22:28;;;;;;;;;3.00;3.00;;;;;15.81;53.03;101860.84;5019742;28;45214;-84
2021/10/16 14:24:54;;;;;;;;;1.25;1.25;;;;;15.79;52.98;101865.34;5025126;28;45289;-83
2021/10/16 14:27:21;;;;;;;;;3.75;2.00;;;;;15.78;53.11;101854.81;5024952;28;45589;-84
2021/10/16 14:29:46;;;;;;;;;2.25;2.25;;;;;15.77;53.91;101847.75;5024004;28;45243;-84
2021/10/16 14:32:12;;;;;;;;;2.50;2.25;;;;;15.75;53.07;101848.69;5036013;28;45716;-84
2021/10/16 14:34:37;;;;;;;;;2.00;2.00;;;;;15.75;52.74;101853.97;5039487;28;45453;-84
2021/10/16 14:37:03;;;;;;;;;5.00;3.75;;;;;15.81;52.36;101857.31;5039451;28;45292;-84
2021/10/16 14:39:29;;;;;;;;;2.00;2.00;;;;;15.81;52.15;101844.06;5027224;28;45468;-83
2021/10/16 14:41:54;;;;;;;;;5.00;2.25;;;;;15.80;52.39;101842.34;5039417;28;45431;-83
2021/10/16 14:44:19;;;;;;;;;5.25;2.75;;;;;15.79;52.59;101843.25;5016789;28;46954;-84
2021/10/16 14:46:45;;;;;;;;;2.00;2.00;;;;;15.79;52.35;101835.31;5030813;28;45432;-84
2021/10/16 14:49:15;;;;;;;;;2.00;2.00;;;;;15.78;52.21;101836.25;5028327;28;45437;-84
2021/10/16 14:51:41;;;;;;;;;2.75;2.75;;;;;15.80;51.67;101843.22;5041726;28;45264;-84
2021/10/16 14:54:06;;;;;;;;;4.00;2.00;;;;;15.79;52.34;101837.97;5040441;28;45280;-83
2021/10/16 14:56:34;;;;;;;;;2.75;2.75;;;;;15.77;51.04;101839.81;5031338;28;45423;-84
2021/10/16 14:58:59;;;;;;;;;6.00;6.00;;;;;15.75;51.53;101830.13;5029336;28;45459;-84
2021/10/16 15:01:24;;;;;;;;;16.25;12.50;;;;;15.79;51.36;101832.66;5042728;28;45446;-84
2021/10/16 15:03:50;;;;;;;;;8.00;6.25;;;;;15.73;51.27;101829.31;5034837;28;46478;-84
2021/10/16 15:06:16;;;;;;;;;2.00;2.00;;;;;15.73;51.25;101834.63;5010197;28;45793;-83
2021/10/16 15:08:41;;;;;;;;;13.00;11.00;;;;;15.71;51.73;101833.81;5042557;28;45414;-83
2021/10/16 15:11:06;;;;;;;;;7.50;7.25;;;;;15.71;52.19;101836.47;5042583;28;45342;-82
2021/10/16 15:13:32;;;;;;;;;5.25;4.50;;;;;15.70;53.21;101841.84;5038244;28;45439;-82
2021/10/16 15:15:57;;;;;;;;;2.75;2.75;;;;;15.63;52.82;101833.25;5025679;28;45277;-83
2021/10/16 15:18:23;;;;;;;;;3.25;2.00;;;;;15.62;52.87;101837.69;5042810;28;45158;-83
2021/10/16 15:20:48;;;;;;;;;2.00;2.00;;;;;15.61;54.07;101843.91;5042558;28;45609;-83
2021/10/16 15:23:15;;;;;;;;;3.00;3.00;;;;;15.58;54.12;101841.34;5026935;28;46355;-81
2021/10/16 15:25:40;;;;;;;;;4.00;4.00;;;;;15.53;53.81;101841.53;5022084;28;45552;-82
2021/10/16 15:28:05;;;;;;;;;2.50;2.50;;;;;15.51;52.29;101835.41;5022677;28;45276;-81
2021/10/16 15:30:31;;;;;;;;;3.50;3.50;;;;;15.47;49.91;101844.41;5022352;28;45219;-81
2021/10/16 15:32:56;;;;;;;;;2.25;1.50;;;;;15.51;48.66;101838.06;5022031;28;45244;-82
2021/10/16 15:35:22;;;;;;;;;16.75;15.25;;;;;15.60;50.14;101842.19;5022096;28;45461;-83
2021/10/16 15:37:48;;;;;;;;;7.75;6.00;;;;;15.66;50.16;101842.84;5021087;28;45673;-82
2021/10/16 15:40:13;;;;;;;;;6.00;4.00;;;;;15.69;50.96;101848.91;5020981;28;45474;-82
2021/10/16 15:42:39;;;;;;;;;6.00;4.00;;;;;15.62;52.68;101835.03;5021404;28;45511;-82
2021/10/16 15:45:05;;;;;;;;;5.00;5.00;;;;;15.59;51.90;101850.16;5022186;28;45327;-82
2021/10/16 15:47:31;;;;;;;;;2.75;2.75;;;;;15.53;51.88;101845.97;5021712;28;45352;-82
2021/10/16 15:49:57;;;;;;;;;11.75;8.50;;;;;15.52;51.72;101846.88;5020868;28;45413;-81
2021/10/16 15:52:22;;;;;;;;;11.50;8.25;;;;;15.55;51.50;101851.22;5020526;28;45442;-81
2021/10/16 15:54:48;;;;;;;;;8.75;5.50;;;;;15.51;52.25;101846.00;5019755;28;45249;-81
2021/10/16 15:57:14;;;;;;;;;4.00;4.00;;;;;15.52;52.82;101846.88;5015526;28;45155;-82
2021/10/16 15:59:40;;;;;;;;;5.50;4.75;;;;;15.44;51.02;101855.09;5018320;28;45444;-82
2021/10/16 16:02:05;;;;;;;;;3.50;3.50;;;;;15.42;52.58;101849.00;5019181;28;46742;-82
2021/10/16 16:04:31;;;;;;;;;4.25;2.00;;;;;15.34;51.92;101841.31;5020071;28;45165;-81
2021/10/16 16:06:56;;;;;;;;;4.75;4.75;;;;;15.33;53.37;101847.56;5013128;28;45419;-81
2021/10/16 16:09:22;;;;;;;;;6.00;4.25;;;;;15.27;52.24;101851.28;5020183;28;45473;-81
2021/10/16 16:11:47;;;;;;;;;5.25;5.00;;;;;15.30;53.22;101853.81;5019635;28;45447;-82
2021/10/16 16:14:12;;;;;;;;;3.00;3.00;;;;;15.29;52.78;101846.78;5019176;28;45435;-81
2021/10/16 16:16:38;;;;;;;;;3.00;3.00;;;;;15.27;52.44;101848.63;5020440;28;45400;-81
2021/10/16 16:19:03;;;;;;;;;6.00;6.00;;;;;15.25;53.84;101839.00;5019488;28;45743;-81
2021/10/16 16:21:29;;;;;;;;;3.00;3.00;;;;;15.23;53.76;101836.41;5002704;28;48367;-82
2021/10/16 16:23:55;;;;;;;;;56.75;45.25;;;;;15.26;52.69;101849.53;5021765;28;45497;-81
2021/10/16 16:26:21;;;;;;;;;64.00;49.00;;;;;15.28;52.00;101844.19;5022082;28;45494;-82
2021/10/16 16:28:46;;;;;;;;;66.00;49.25;;;;;15.35;50.99;101850.13;5019925;28;45461;-82
2021/10/16 16:31:14;;;;;;;;;37.25;26.25;;;;;15.31;52.29;101830.81;5020349;28;45435;-81
2021/10/16 16:33:42;;;;;;;;;67.75;49.00;;;;;15.34;52.63;101843.09;5020806;28;45223;-82
2021/10/16 16:36:08;;;;;;;;;38.00;30.00;;;;;15.30;53.60;101848.53;5020004;28;45532;-82
2021/10/16 16:38:34;;;;;;;;;92.75;78.75;;;;;15.30;54.67;101855.59;5020008;28;45352;-82
2021/10/16 16:40:59;;;;;;;;;79.25;63.75;;;;;15.21;54.53;101846.19;5020475;28;46363;-82
2021/10/16 16:43:26;;;;;;;;;53.25;41.00;;;;;15.18;54.91;101843.66;5002302;28;45821;-82
2021/10/16 16:45:52;;;;;;;;;66.00;47.50;;;;;15.15;54.82;101839.34;5019297;28;45450;-82
2021/10/16 16:48:17;;;;;;;;;63.50;46.50;;;;;15.09;55.43;101849.28;5019907;28;45455;-82
2021/10/16 16:50:43;;;;;;;;;42.75;34.25;;;;;14.98;55.27;101841.69;5020318;28;46428;-82
2021/10/16 16:53:08;;;;;;;;;29.00;24.00;;;;;14.89;54.90;101843.72;5019787;28;45336;-81
2021/10/16 16:55:33;;;;;;;;;17.25;14.00;;;;;14.82;55.04;101843.03;5030090;28;46579;-81
2021/10/16 16:57:59;;;;;;;;;19.50;16.00;;;;;14.74;55.43;101845.94;5018961;28;45447;-81
2021/10/16 17:00:24;;;;;;;;;7.25;7.25;;;;;14.73;55.25;101848.63;5002256;28;46341;-81
2021/10/16 17:02:49;;;;;;;;;7.00;7.00;;;;;14.71;55.59;101856.66;5001513;28;45352;-81
2021/10/16 17:05:15;;;;;;;;;9.25;7.50;;;;;14.72;56.23;101854.84;5019996;28;45470;-81
2021/10/16 17:07:41;;;;;;;;;23.00;21.50;;;;;14.71;55.89;101856.66;5025872;28;45474;-81
2021/10/16 17:10:07;;;;;;;;;11.50;9.75;;;;;14.77;56.09;101871.44;5019519;28;45461;-81
2021/10/16 17:12:33;;;;;;;;;5.25;4.75;;;;;14.73;56.21;101862.75;5023170;28;45624;-81
2021/10/16 17:14:59;;;;;;;;;22.00;19.75;;;;;14.69;56.13;101855.81;5025496;28;45636;-82
2021/10/16 17:17:24;;;;;;;;;17.25;12.00;;;;;14.66;56.09;101866.50;5027242;28;45478;-81
2021/10/16 17:19:49;;;;;;;;;14.50;12.75;;;;;14.66;56.44;101863.00;5020001;28;45609;-82
2021/10/16 17:22:15;;;;;;;;;6.75;5.25;;;;;14.66;55.23;101868.28;5020973;28;45388;-82
2021/10/16 17:24:41;;;;;;;;;6.00;5.50;;;;;14.65;55.89;101870.06;5023055;28;45405;-82
2021/10/16 17:27:07;;;;;;;;;3.75;3.50;;;;;14.64;56.21;101881.56;5019985;28;45439;-81
2021/10/16 17:29:33;;;;;;;;;5.25;5.00;;;;;14.55;57.03;101876.53;5019616;28;45665;-81
2021/10/16 17:32:00;;;;;;;;;5.00;4.50;;;;;14.45;57.35;101876.84;5022872;28;45444;-81
2021/10/16 17:34:26;;;;;;;;;9.00;4.50;;;;;14.30;57.49;101875.53;5015897;28;45427;-81
2021/10/16 17:36:54;;;;;;;;;13.25;10.00;;;;;14.27;57.24;101886.22;5019793;28;45474;-82
2021/10/16 17:39:20;;;;;;;;;4.00;4.00;;;;;14.16;58.30;101883.88;5014649;28;46281;-81
2021/10/16 17:41:45;;;;;;;;;8.75;8.25;;;;;14.05;57.21;101886.88;5016824;28;45511;-81
2021/10/16 17:44:11;;;;;;;;;5.25;4.50;;;;;14.01;57.89;101883.44;4999984;28;45466;-81